sensor_id;sensor_type;location;lat;lon;timestamp;pressure;altitude;pressure_sealevel;temperature;humidity
28354;BME280;15603;50.878;8.036;2022-12-18T00:01:40;141125.31;;;-9.15;100.00
28354;BME280;15603;50.878;8.036;2022-12-18T00:04:11;141115.75;;;-9.19;100.00
28354;BME280;15603;50.878;8.036;2022-12-18T00:06:40;141113.34;;;-9.20;100.00
28354;BME280;15603;50.878;8.036;2022-12-18T00:09:08;141106.19;;;-9.23;100.00
28354;BME280;15603;50.878;8.036;2022-12-18T00:11:35;141106.19;;;-9.23;100.00
28354;BME280;15603;50.878;8.036;2022-12-18T00:14:02;141103.78;;;-9.24;100.00
28354;BME280;15603;50.878;8.036;2022-12-18T00:16:29;141095.41;;;-9.28;100.00
28354;BME280;15603;50.878;8.036;2022-12-18T00:18:57;141084.66;;;-9.33;100.00
28354;BME280;15603;50.878;8.036;2022-12-18T00:21:24;141081.06;;;-9.34;100.00
28354;BME280;15603;50.878;8.036;2022-12-18T00:23:51;141089.44;;;-9.31;100.00
28354;BME280;15603;50.878;8.036;2022-12-18T00:26:19;141093.03;;;-9.29;100.00
28354;BME280;15603;50.878;8.036;2022-12-18T00:28:48;141091.81;;;-9.30;100.00
28354;BME280;15603;50.878;8.036;2022-12-18T00:31:17;141088.25;;;-9.31;100.00
28354;BME280;15603;50.878;8.036;2022-12-18T00:33:44;141089.44;;;-9.31;100.00
28354;BME280;15603;50.878;8.036;2022-12-18T00:36:13;141082.25;;;-9.34;100.00
28354;BME280;15603;50.878;8.036;2022-12-18T00:38:40;141073.84;;;-9.37;100.00
28354;BME280;15603;50.878;8.036;2022-12-18T00:41:08;141063.09;;;-9.42;100.00
28354;BME280;15603;50.878;8.036;2022-12-18T00:43:35;141072.69;;;-9.38;100.00
28354;BME280;15603;50.878;8.036;2022-12-18T00:46:03;141076.28;;;-9.36;100.00
28354;BME280;15603;50.878;8.036;2022-12-18T00:48:31;141067.88;;;-9.40;100.00
28354;BME280;15603;50.878;8.036;2022-12-18T00:50:59;141075.09;;;-9.37;100.00
28354;BME280;15603;50.878;8.036;2022-12-18T00:53:25;141079.88;;;-9.35;100.00
28354;BME280;15603;50.878;8.036;2022-12-18T00:55:52;141106.19;;;-9.23;100.00
28354;BME280;15603;50.878;8.036;2022-12-18T00:58:19;141115.75;;;-9.19;100.00
28354;BME280;15603;50.878;8.036;2022-12-18T01:00:46;141125.31;;;-9.15;100.00
28354;BME280;15603;50.878;8.036;2022-12-18T01:03:13;141120.53;;;-9.17;100.00
28354;BME280;15603;50.878;8.036;2022-12-18T01:05:43;141113.34;;;-9.20;100.00
28354;BME280;15603;50.878;8.036;2022-12-18T01:08:10;141104.97;;;-9.24;100.00
28354;BME280;15603;50.878;8.036;2022-12-18T01:10:40;141085.84;;;-9.32;100.00
28354;BME280;15603;50.878;8.036;2022-12-18T01:13:07;141070.31;;;-9.39;100.00
28354;BME280;15603;50.878;8.036;2022-12-18T01:15:35;141078.63;;;-9.35;100.00
28354;BME280;15603;50.878;8.036;2022-12-18T01:18:01;141072.69;;;-9.38;100.00
28354;BME280;15603;50.878;8.036;2022-12-18T01:20:28;141075.09;;;-9.37;100.00
28354;BME280;15603;50.878;8.036;2022-12-18T01:22:56;141065.53;;;-9.41;100.00
28354;BME280;15603;50.878;8.036;2022-12-18T01:25:23;141060.69;;;-9.43;100.00
28354;BME280;15603;50.878;8.036;2022-12-18T01:27:50;141048.75;;;-9.48;100.00
28354;BME280;15603;50.878;8.036;2022-12-18T01:30:17;141043.97;;;-9.50;100.00
28354;BME280;15603;50.878;8.036;2022-12-18T01:32:44;141045.16;;;-9.50;100.00
28354;BME280;15603;50.878;8.036;2022-12-18T01:35:11;141040.38;;;-9.52;100.00
28354;BME280;15603;50.878;8.036;2022-12-18T01:37:38;141029.63;;;-9.56;100.00
28354;BME280;15603;50.878;8.036;2022-12-18T01:40:05;141029.63;;;-9.56;100.00
28354;BME280;15603;50.878;8.036;2022-12-18T01:42:32;141036.78;;;-9.53;100.00
28354;BME280;15603;50.878;8.036;2022-12-18T01:45:21;141039.19;;;-9.52;100.00
28354;BME280;15603;50.878;8.036;2022-12-18T01:47:51;141028.41;;;-9.57;100.00
28354;BME280;15603;50.878;8.036;2022-12-18T01:50:27;141005.69;;;-9.67;100.00
28354;BME280;15603;50.878;8.036;2022-12-18T01:52:56;140985.38;;;-9.75;100.00
28354;BME280;15603;50.878;8.036;2022-12-18T01:55:25;141009.28;;;-9.65;100.00
28354;BME280;15603;50.878;8.036;2022-12-18T01:57:54;141017.66;;;-9.61;100.00
28354;BME280;15603;50.878;8.036;2022-12-18T02:00:22;141005.69;;;-9.67;100.00
28354;BME280;15603;50.878;8.036;2022-12-18T02:02:50;141000.91;;;-9.69;100.00
28354;BME280;15603;50.878;8.036;2022-12-18T02:05:24;141004.50;;;-9.67;100.00
28354;BME280;15603;50.878;8.036;2022-12-18T02:08:00;141003.31;;;-9.68;100.00
28354;BME280;15603;50.878;8.036;2022-12-18T02:10:32;140998.53;;;-9.70;100.00
28354;BME280;15603;50.878;8.036;2022-12-18T02:18:24;141000.91;;;-9.69;100.00
28354;BME280;15603;50.878;8.036;2022-12-18T02:20:54;140992.53;;;-9.72;100.00
28354;BME280;15603;50.878;8.036;2022-12-18T02:28:32;140996.13;;;-9.71;100.00
28354;BME280;15603;50.878;8.036;2022-12-18T02:31:04;140987.75;;;-9.74;100.00
28354;BME280;15603;50.878;8.036;2022-12-18T02:33:34;140991.34;;;-9.73;100.00
28354;BME280;15603;50.878;8.036;2022-12-18T02:36:03;140998.53;;;-9.70;100.00
28354;BME280;15603;50.878;8.036;2022-12-18T02:38:31;141037.97;;;-9.53;100.00
28354;BME280;15603;50.878;8.036;2022-12-18T02:41:06;141039.19;;;-9.52;100.00
28354;BME280;15603;50.878;8.036;2022-12-18T02:43:35;141029.63;;;-9.56;100.00
28354;BME280;15603;50.878;8.036;2022-12-18T02:46:24;141000.91;;;-9.69;100.00
28354;BME280;15603;50.878;8.036;2022-12-18T02:48:53;140991.34;;;-9.73;100.00
28354;BME280;15603;50.878;8.036;2022-12-18T02:51:28;140843.13;;;-10.36;100.00
28354;BME280;15603;50.878;8.036;2022-12-18T02:54:09;140981.78;;;-9.77;100.00
28354;BME280;15603;50.878;8.036;2022-12-18T02:56:39;140978.19;;;-9.78;100.00
28354;BME280;15603;50.878;8.036;2022-12-18T02:59:12;140979.38;;;-9.78;100.00
28354;BME280;15603;50.878;8.036;2022-12-18T03:01:54;140978.19;;;-9.78;100.00
28354;BME280;15603;50.878;8.036;2022-12-18T03:04:26;140961.44;;;-9.85;100.00
28354;BME280;15603;50.878;8.036;2022-12-18T03:06:56;140956.66;;;-9.88;100.00
28354;BME280;15603;50.878;8.036;2022-12-18T03:09:34;140953.06;;;-9.89;100.00
28354;BME280;15603;50.878;8.036;2022-12-18T03:12:12;140932.75;;;-9.98;100.00
28354;BME280;15603;50.878;8.036;2022-12-18T03:14:54;140926.78;;;-10.00;100.00
28354;BME280;15603;50.878;8.036;2022-12-18T03:17:23;140942.31;;;-9.94;100.00
28354;BME280;15603;50.878;8.036;2022-12-18T03:19:52;140950.69;;;-9.90;100.00
28354;BME280;15603;50.878;8.036;2022-12-18T03:22:21;140957.88;;;-9.87;100.00
28354;BME280;15603;50.878;8.036;2022-12-18T03:24:52;140965.03;;;-9.84;100.00
28354;BME280;15603;50.878;8.036;2022-12-18T03:27:20;140957.88;;;-9.87;100.00
28354;BME280;15603;50.878;8.036;2022-12-18T03:29:53;140956.66;;;-9.88;100.00
28354;BME280;15603;50.878;8.036;2022-12-18T03:32:27;140967.44;;;-9.83;100.00
28354;BME280;15603;50.878;8.036;2022-12-18T03:34:58;140960.25;;;-9.86;100.00
28354;BME280;15603;50.878;8.036;2022-12-18T03:37:30;140979.38;;;-9.78;100.00
28354;BME280;15603;50.878;8.036;2022-12-18T03:39:57;141002.09;;;-9.68;100.00
28354;BME280;15603;50.878;8.036;2022-12-18T03:42:45;141015.25;;;-9.62;100.00
28354;BME280;15603;50.878;8.036;2022-12-18T03:45:17;141018.84;;;-9.61;100.00
28354;BME280;15603;50.878;8.036;2022-12-18T03:54:06;141034.41;;;-9.54;100.00
28354;BME280;15603;50.878;8.036;2022-12-18T03:56:41;141041.56;;;-9.51;100.00
28354;BME280;15603;50.878;8.036;2022-12-18T03:59:11;141015.25;;;-9.62;100.00
28354;BME280;15603;50.878;8.036;2022-12-18T04:01:40;140996.13;;;-9.71;100.00
28354;BME280;15603;50.878;8.036;2022-12-18T04:04:11;141006.88;;;-9.66;100.00
28354;BME280;15603;50.878;8.036;2022-12-18T04:06:40;141008.09;;;-9.65;100.00
28354;BME280;15603;50.878;8.036;2022-12-18T04:09:11;141058.31;;;-9.44;100.00
28354;BME280;15603;50.878;8.036;2022-12-18T04:11:43;141070.31;;;-9.39;100.00
28354;BME280;15603;50.878;8.036;2022-12-18T04:14:12;141081.06;;;-9.34;100.00
28354;BME280;15603;50.878;8.036;2022-12-18T04:16:44;141082.25;;;-9.34;100.00
28354;BME280;15603;50.878;8.036;2022-12-18T04:19:14;141051.13;;;-9.47;100.00
28354;BME280;15603;50.878;8.036;2022-12-18T04:21:43;141065.53;;;-9.41;100.00
28354;BME280;15603;50.878;8.036;2022-12-18T04:24:12;141077.44;;;-9.36;100.00
28354;BME280;15603;50.878;8.036;2022-12-18T04:26:45;141060.69;;;-9.43;100.00
28354;BME280;15603;50.878;8.036;2022-12-18T04:29:16;141059.50;;;-9.43;100.00
28354;BME280;15603;50.878;8.036;2022-12-18T04:31:43;141041.56;;;-9.51;99.93
28354;BME280;15603;50.878;8.036;2022-12-18T04:34:10;141045.16;;;-9.50;99.56
28354;BME280;15603;50.878;8.036;2022-12-18T04:36:43;141034.41;;;-9.54;99.58
28354;BME280;15603;50.878;8.036;2022-12-18T04:39:10;141034.41;;;-9.54;100.00
28354;BME280;15603;50.878;8.036;2022-12-18T04:41:37;141024.81;;;-9.58;100.00
28354;BME280;15603;50.878;8.036;2022-12-18T04:44:04;141029.63;;;-9.56;100.00
28354;BME280;15603;50.878;8.036;2022-12-18T04:46:31;141022.44;;;-9.59;100.00
28354;BME280;15603;50.878;8.036;2022-12-18T04:48:58;141041.56;;;-9.51;100.00
28354;BME280;15603;50.878;8.036;2022-12-18T04:51:24;141023.63;;;-9.59;100.00
28354;BME280;15603;50.878;8.036;2022-12-18T04:53:53;141034.41;;;-9.54;100.00
28354;BME280;15603;50.878;8.036;2022-12-18T04:56:19;141043.97;;;-9.50;100.00
28354;BME280;15603;50.878;8.036;2022-12-18T04:58:46;141060.69;;;-9.43;100.00
28354;BME280;15603;50.878;8.036;2022-12-18T05:01:14;141078.63;;;-9.35;100.00
28354;BME280;15603;50.878;8.036;2022-12-18T05:03:41;141088.25;;;-9.31;100.00
28354;BME280;15603;50.878;8.036;2022-12-18T05:06:09;141113.34;;;-9.20;100.00
28354;BME280;15603;50.878;8.036;2022-12-18T05:08:36;141154.03;;;-9.03;100.00
28354;BME280;15603;50.878;8.036;2022-12-18T05:13:31;141221.06;;;-8.74;100.00
28354;BME280;15603;50.878;8.036;2022-12-18T05:15:58;141278.53;;;-8.50;100.00
28354;BME280;15603;50.878;8.036;2022-12-18T05:18:25;141343.13;;;-8.22;100.00
28354;BME280;15603;50.878;8.036;2022-12-18T05:20:52;141389.84;;;-8.02;100.00
28354;BME280;15603;50.878;8.036;2022-12-18T05:23:20;141409.00;;;-7.94;100.00
28354;BME280;15603;50.878;8.036;2022-12-18T05:26:09;141407.81;;;-7.94;100.00
28354;BME280;15603;50.878;8.036;2022-12-18T05:28:35;141413.78;;;-7.92;100.00
28354;BME280;15603;50.878;8.036;2022-12-18T05:31:02;141441.34;;;-7.80;100.00
28354;BME280;15603;50.878;8.036;2022-12-18T05:33:31;141494.06;;;-7.57;100.00
28354;BME280;15603;50.878;8.036;2022-12-18T05:35:59;141552.78;;;-7.32;100.00
28354;BME280;15603;50.878;8.036;2022-12-18T05:38:26;141580.34;;;-7.20;100.00
28354;BME280;15603;50.878;8.036;2022-12-18T05:40:53;141601.94;;;-7.11;100.00
28354;BME280;15603;50.878;8.036;2022-12-18T05:43:21;141642.69;;;-6.94;100.00
28354;BME280;15603;50.878;8.036;2022-12-18T05:45:48;141654.69;;;-6.88;100.00
28354;BME280;15603;50.878;8.036;2022-12-18T05:48:16;141676.28;;;-6.79;100.00
28354;BME280;15603;50.878;8.036;2022-12-18T05:50:44;141724.22;;;-6.59;100.00
28354;BME280;15603;50.878;8.036;2022-12-18T05:53:14;141731.41;;;-6.56;100.00
28354;BME280;15603;50.878;8.036;2022-12-18T05:55:42;141760.19;;;-6.43;100.00
28354;BME280;15603;50.878;8.036;2022-12-18T05:58:10;141743.38;;;-6.51;100.00
28354;BME280;15603;50.878;8.036;2022-12-18T06:00:38;141784.22;;;-6.33;100.00
28354;BME280;15603;50.878;8.036;2022-12-18T06:03:08;141784.22;;;-6.33;100.00
28354;BME280;15603;50.878;8.036;2022-12-18T06:05:40;141777.00;;;-6.36;100.00
28354;BME280;15603;50.878;8.036;2022-12-18T06:08:07;141750.59;;;-6.47;100.00
28354;BME280;15603;50.878;8.036;2022-12-18T06:10:34;141747.00;;;-6.49;100.00
28354;BME280;15603;50.878;8.036;2022-12-18T06:13:01;141777.00;;;-6.36;100.00
28354;BME280;15603;50.878;8.036;2022-12-18T06:15:28;141805.75;;;-6.24;100.00
28354;BME280;15603;50.878;8.036;2022-12-18T06:17:55;141843.00;;;-6.08;100.00
28354;BME280;15603;50.878;8.036;2022-12-18T06:20:21;141858.56;;;-6.01;100.00
28354;BME280;15603;50.878;8.036;2022-12-18T06:22:49;141843.00;;;-6.08;100.00
28354;BME280;15603;50.878;8.036;2022-12-18T06:25:16;141858.56;;;-6.01;100.00
28354;BME280;15603;50.878;8.036;2022-12-18T06:27:43;141856.19;;;-6.02;100.00
28354;BME280;15603;50.878;8.036;2022-12-18T06:30:10;141880.13;;;-5.92;100.00
28354;BME280;15603;50.878;8.036;2022-12-18T06:32:37;141871.75;;;-5.96;100.00
28354;BME280;15603;50.878;8.036;2022-12-18T06:35:04;141894.50;;;-5.86;100.00
28354;BME280;15603;50.878;8.036;2022-12-18T06:37:31;141901.72;;;-5.83;100.00
28354;BME280;15603;50.878;8.036;2022-12-18T06:39:58;141872.94;;;-5.95;100.00
28354;BME280;15603;50.878;8.036;2022-12-18T06:42:25;141884.91;;;-5.90;100.00
28354;BME280;15603;50.878;8.036;2022-12-18T06:44:52;141910.13;;;-5.79;100.00
28354;BME280;15603;50.878;8.036;2022-12-18T06:47:19;141937.72;;;-5.67;100.00
28354;BME280;15603;50.878;8.036;2022-12-18T06:49:46;141931.72;;;-5.70;100.00
28354;BME280;15603;50.878;8.036;2022-12-18T06:52:13;141907.72;;;-5.80;100.00
28354;BME280;15603;50.878;8.036;2022-12-18T06:54:39;141887.28;;;-5.89;100.00
28354;BME280;15603;50.878;8.036;2022-12-18T06:57:06;141894.50;;;-5.86;100.00
28354;BME280;15603;50.878;8.036;2022-12-18T06:59:33;141870.56;;;-5.96;100.00
28354;BME280;15603;50.878;8.036;2022-12-18T07:02:00;141894.50;;;-5.86;100.00
28354;BME280;15603;50.878;8.036;2022-12-18T07:04:28;141894.50;;;-5.86;100.00
28354;BME280;15603;50.878;8.036;2022-12-18T07:06:55;141928.16;;;-5.72;100.00
28354;BME280;15603;50.878;8.036;2022-12-18T07:09:23;141925.72;;;-5.73;100.00
28354;BME280;15603;50.878;8.036;2022-12-18T07:11:50;141931.72;;;-5.70;100.00
28354;BME280;15603;50.878;8.036;2022-12-18T07:14:17;141932.94;;;-5.69;100.00
28354;BME280;15603;50.878;8.036;2022-12-18T07:16:44;141956.94;;;-5.59;100.00
28354;BME280;15603;50.878;8.036;2022-12-18T07:19:11;141954.50;;;-5.60;100.00
28354;BME280;15603;50.878;8.036;2022-12-18T07:21:37;141959.31;;;-5.58;100.00
28354;BME280;15603;50.878;8.036;2022-12-18T07:24:05;141973.75;;;-5.52;100.00
28354;BME280;15603;50.878;8.036;2022-12-18T07:26:32;141978.53;;;-5.50;100.00
28354;BME280;15603;50.878;8.036;2022-12-18T07:28:59;141964.16;;;-5.56;100.00
28354;BME280;15603;50.878;8.036;2022-12-18T07:31:25;141971.31;;;-5.53;100.00
28354;BME280;15603;50.878;8.036;2022-12-18T07:33:53;141971.31;;;-5.53;100.00
28354;BME280;15603;50.878;8.036;2022-12-18T07:36:20;141984.53;;;-5.47;100.00
28354;BME280;15603;50.878;8.036;2022-12-18T07:38:47;141985.72;;;-5.47;100.00
28354;BME280;15603;50.878;8.036;2022-12-18T07:41:14;142014.56;;;-5.35;100.00
28354;BME280;15603;50.878;8.036;2022-12-18T07:43:41;142000.16;;;-5.41;100.00
28354;BME280;15603;50.878;8.036;2022-12-18T07:46:10;142020.53;;;-5.32;100.00
28354;BME280;15603;50.878;8.036;2022-12-18T07:48:39;142028.94;;;-5.28;100.00
28354;BME280;15603;50.878;8.036;2022-12-18T07:51:06;142015.75;;;-5.34;100.00
28354;BME280;15603;50.878;8.036;2022-12-18T07:53:34;142037.38;;;-5.25;100.00
28354;BME280;15603;50.878;8.036;2022-12-18T07:56:06;142042.16;;;-5.23;100.00
28354;BME280;15603;50.878;8.036;2022-12-18T07:58:53;142067.34;;;-5.12;100.00
28354;BME280;15603;50.878;8.036;2022-12-18T08:01:20;142072.16;;;-5.10;100.00
28354;BME280;15603;50.878;8.036;2022-12-18T08:03:47;142070.97;;;-5.10;100.00
28354;BME280;15603;50.878;8.036;2022-12-18T08:06:18;142098.56;;;-4.99;100.00
28354;BME280;15603;50.878;8.036;2022-12-18T08:08:48;142115.41;;;-4.91;100.00
28354;BME280;15603;50.878;8.036;2022-12-18T08:11:15;142117.81;;;-4.90;100.00
28354;BME280;15603;50.878;8.036;2022-12-18T08:13:42;142117.81;;;-4.90;100.00
28354;BME280;15603;50.878;8.036;2022-12-18T08:16:09;142125.00;;;-4.87;100.00
28354;BME280;15603;50.878;8.036;2022-12-18T08:18:36;142145.44;;;-4.79;100.00
28354;BME280;15603;50.878;8.036;2022-12-18T08:21:07;142182.66;;;-4.63;100.00
28354;BME280;15603;50.878;8.036;2022-12-18T08:23:34;142209.09;;;-4.51;100.00
28354;BME280;15603;50.878;8.036;2022-12-18T08:26:08;142055.38;;;-5.17;100.00
28354;BME280;15603;50.878;8.036;2022-12-18T08:28:35;142271.56;;;-4.25;100.00
28354;BME280;15603;50.878;8.036;2022-12-18T08:31:02;142290.78;;;-4.17;100.00
28354;BME280;15603;50.878;8.036;2022-12-18T08:33:30;142304.03;;;-4.11;100.00
28354;BME280;15603;50.878;8.036;2022-12-18T08:36:00;142320.84;;;-4.04;100.00
28354;BME280;15603;50.878;8.036;2022-12-18T08:38:27;142346.06;;;-3.93;100.00
28354;BME280;15603;50.878;8.036;2022-12-18T08:41:01;142370.13;;;-3.83;100.00
28354;BME280;15603;50.878;8.036;2022-12-18T08:43:28;142404.97;;;-3.68;100.00
28354;BME280;15603;50.878;8.036;2022-12-18T08:46:14;142425.44;;;-3.59;100.00
28354;BME280;15603;50.878;8.036;2022-12-18T08:48:41;142447.06;;;-3.50;100.00
28354;BME280;15603;50.878;8.036;2022-12-18T08:51:08;142459.06;;;-3.45;100.00
28354;BME280;15603;50.878;8.036;2022-12-18T08:53:36;142468.69;;;-3.41;100.00
28354;BME280;15603;50.878;8.036;2022-12-18T08:56:04;142486.72;;;-3.33;100.00
28354;BME280;15603;50.878;8.036;2022-12-18T08:58:31;142509.63;;;-3.23;100.00
28354;BME280;15603;50.878;8.036;2022-12-18T09:01:01;142526.41;;;-3.16;100.00
28354;BME280;15603;50.878;8.036;2022-12-18T09:03:28;142544.47;;;-3.08;99.88
28354;BME280;15603;50.878;8.036;2022-12-18T09:05:55;142555.31;;;-3.04;99.15
28354;BME280;15603;50.878;8.036;2022-12-18T09:08:22;142572.13;;;-2.97;99.52
28354;BME280;15603;50.878;8.036;2022-12-18T09:10:49;142588.97;;;-2.89;99.18
28354;BME280;15603;50.878;8.036;2022-12-18T09:13:16;142602.22;;;-2.84;97.03
28354;BME280;15603;50.878;8.036;2022-12-18T09:15:44;142627.50;;;-2.73;96.88
28354;BME280;15603;50.878;8.036;2022-12-18T09:18:15;142657.53;;;-2.60;96.79
28354;BME280;15603;50.878;8.036;2022-12-18T09:20:42;142661.16;;;-2.59;96.40
28354;BME280;15603;50.878;8.036;2022-12-18T09:23:09;142667.16;;;-2.56;95.37
28354;BME280;15603;50.878;8.036;2022-12-18T09:25:36;142682.84;;;-2.49;94.91
28354;BME280;15603;50.878;8.036;2022-12-18T09:28:05;142685.22;;;-2.48;95.10
28354;BME280;15603;50.878;8.036;2022-12-18T09:30:32;142716.50;;;-2.35;95.17
28354;BME280;15603;50.878;8.036;2022-12-18T09:33:02;142715.31;;;-2.35;93.90
28354;BME280;15603;50.878;8.036;2022-12-18T09:35:31;142726.16;;;-2.31;93.58
28354;BME280;15603;50.878;8.036;2022-12-18T09:37:59;142728.56;;;-2.30;93.08
28354;BME280;15603;50.878;8.036;2022-12-18T09:40:26;142735.78;;;-2.27;93.35
28354;BME280;15603;50.878;8.036;2022-12-18T09:42:57;142737.00;;;-2.26;92.88
28354;BME280;15603;50.878;8.036;2022-12-18T09:45:25;142747.81;;;-2.22;93.03
28354;BME280;15603;50.878;8.036;2022-12-18T09:47:54;142737.00;;;-2.26;92.04
28354;BME280;15603;50.878;8.036;2022-12-18T09:52:49;142762.28;;;-2.15;92.30
28354;BME280;15603;50.878;8.036;2022-12-18T09:57:49;142782.72;;;-2.07;91.03
28354;BME280;15603;50.878;8.036;2022-12-18T10:00:19;142793.53;;;-2.02;90.91
28354;BME280;15603;50.878;8.036;2022-12-18T10:02:46;142816.47;;;-1.92;89.97
28354;BME280;15603;50.878;8.036;2022-12-18T10:05:15;142824.84;;;-1.89;88.75
28354;BME280;15603;50.878;8.036;2022-12-18T10:10:19;142865.78;;;-1.71;88.36
28354;BME280;15603;50.878;8.036;2022-12-18T10:15:40;142897.09;;;-1.58;86.76
28354;BME280;15603;50.878;8.036;2022-12-18T10:18:16;142903.13;;;-1.55;87.31
28354;BME280;15603;50.878;8.036;2022-12-18T10:21:00;142935.66;;;-1.42;86.11
28354;BME280;15603;50.878;8.036;2022-12-18T10:23:37;142918.78;;;-1.49;85.67
28354;BME280;15603;50.878;8.036;2022-12-18T10:26:13;142926.03;;;-1.46;86.16
28354;BME280;15603;50.878;8.036;2022-12-18T10:28:40;142916.41;;;-1.50;85.92
28354;BME280;15603;50.878;8.036;2022-12-18T10:31:19;142923.59;;;-1.47;85.72
28354;BME280;15603;50.878;8.036;2022-12-18T10:33:50;142911.59;;;-1.52;84.61
28354;BME280;15603;50.878;8.036;2022-12-18T10:36:20;142928.41;;;-1.45;84.68
28354;BME280;15603;50.878;8.036;2022-12-18T10:38:49;142916.41;;;-1.50;84.97
28354;BME280;15603;50.878;8.036;2022-12-18T10:43:50;142903.13;;;-1.55;83.80
28354;BME280;15603;50.878;8.036;2022-12-18T10:46:35;142926.03;;;-1.46;83.58
28354;BME280;15603;50.878;8.036;2022-12-18T10:49:02;142933.22;;;-1.43;84.06
28354;BME280;15603;50.878;8.036;2022-12-18T10:51:33;142935.66;;;-1.42;83.09
28354;BME280;15603;50.878;8.036;2022-12-18T10:54:04;142940.47;;;-1.40;83.25
28354;BME280;15603;50.878;8.036;2022-12-18T10:56:35;142954.91;;;-1.33;82.34
28354;BME280;15603;50.878;8.036;2022-12-18T10:59:03;142971.78;;;-1.26;82.28
28354;BME280;15603;50.878;8.036;2022-12-18T11:01:44;142970.59;;;-1.27;82.42
28354;BME280;15603;50.878;8.036;2022-12-18T11:04:13;142966.97;;;-1.28;81.97
28354;BME280;15603;50.878;8.036;2022-12-18T11:06:53;142965.78;;;-1.29;83.05
28354;BME280;15603;50.878;8.036;2022-12-18T11:09:24;142979.03;;;-1.23;82.63
28354;BME280;15603;50.878;8.036;2022-12-18T11:11:52;143021.19;;;-1.05;82.32
28354;BME280;15603;50.878;8.036;2022-12-18T11:14:33;143040.44;;;-0.97;81.44
28354;BME280;15603;50.878;8.036;2022-12-18T11:17:00;143032.00;;;-1.01;81.59
28354;BME280;15603;50.878;8.036;2022-12-18T11:19:54;143048.88;;;-0.93;81.04
28354;BME280;15603;50.878;8.036;2022-12-18T11:22:25;143052.50;;;-0.92;80.82
28354;BME280;15603;50.878;8.036;2022-12-18T11:25:16;143036.81;;;-0.99;81.38
28354;BME280;15603;50.878;8.036;2022-12-18T11:28:05;143036.81;;;-0.99;81.06
28354;BME280;15603;50.878;8.036;2022-12-18T11:30:48;143059.72;;;-0.89;80.99
28354;BME280;15603;50.878;8.036;2022-12-18T11:33:16;143063.34;;;-0.87;80.69
28354;BME280;15603;50.878;8.036;2022-12-18T11:35:55;143065.78;;;-0.86;80.55
28354;BME280;15603;50.878;8.036;2022-12-18T11:38:25;143058.53;;;-0.89;80.75
28354;BME280;15603;50.878;8.036;2022-12-18T11:40:55;143064.53;;;-0.87;80.80
28354;BME280;15603;50.878;8.036;2022-12-18T11:45:59;143066.97;;;-0.86;80.98
28354;BME280;15603;50.878;8.036;2022-12-18T11:48:28;143058.53;;;-0.89;81.06
28354;BME280;15603;50.878;8.036;2022-12-18T11:50:57;143063.34;;;-0.87;80.70
28354;BME280;15603;50.878;8.036;2022-12-18T11:53:26;143070.59;;;-0.84;80.25
28354;BME280;15603;50.878;8.036;2022-12-18T12:01:21;143075.41;;;-0.82;80.26
28354;BME280;15603;50.878;8.036;2022-12-18T12:04:19;143101.94;;;-0.71;80.08
28354;BME280;15603;50.878;8.036;2022-12-18T12:16:39;143060.97;;;-0.88;79.70
28354;BME280;15603;50.878;8.036;2022-12-18T12:21:48;143036.81;;;-0.99;79.42
28354;BME280;15603;50.878;8.036;2022-12-18T12:24:28;143026.00;;;-1.03;79.93
28354;BME280;15603;50.878;8.036;2022-12-18T12:35:03;142988.66;;;-1.19;79.85
28354;BME280;15603;50.878;8.036;2022-12-18T12:37:39;142985.03;;;-1.21;80.89
28354;BME280;15603;50.878;8.036;2022-12-18T12:40:19;142993.47;;;-1.17;80.21
28354;BME280;15603;50.878;8.036;2022-12-18T12:43:12;142981.41;;;-1.22;81.04
28354;BME280;15603;50.878;8.036;2022-12-18T12:50:49;142947.72;;;-1.36;80.98
28354;BME280;15603;50.878;8.036;2022-12-18T12:53:30;142939.28;;;-1.40;82.01
28354;BME280;15603;50.878;8.036;2022-12-18T12:56:00;142911.59;;;-1.52;82.51
28354;BME280;15603;50.878;8.036;2022-12-18T12:58:34;142906.75;;;-1.54;82.14
28354;BME280;15603;50.878;8.036;2022-12-18T13:01:27;142860.97;;;-1.73;83.03
28354;BME280;15603;50.878;8.036;2022-12-18T13:09:12;142823.66;;;-1.89;84.96
28354;BME280;15603;50.878;8.036;2022-12-18T13:11:43;142840.53;;;-1.82;85.95
28354;BME280;15603;50.878;8.036;2022-12-18T13:19:42;142793.53;;;-2.02;83.03
28354;BME280;15603;50.878;8.036;2022-12-18T13:22:22;142808.03;;;-1.96;83.20
28354;BME280;15603;50.878;8.036;2022-12-18T13:24:50;142792.34;;;-2.03;83.57
28354;BME280;15603;50.878;8.036;2022-12-18T13:30:21;142767.09;;;-2.13;83.33
28354;BME280;15603;50.878;8.036;2022-12-18T13:33:18;142767.09;;;-2.13;83.94
28354;BME280;15603;50.878;8.036;2022-12-18T13:35:39;142752.63;;;-2.20;84.06
28354;BME280;15603;50.878;8.036;2022-12-18T13:48:17;142714.13;;;-2.36;84.50
28354;BME280;15603;50.878;8.036;2022-12-18T13:50:49;142711.69;;;-2.37;84.70
28354;BME280;15603;50.878;8.036;2022-12-18T13:56:04;142665.97;;;-2.57;84.83
28354;BME280;15603;50.878;8.036;2022-12-18T13:58:31;142650.34;;;-2.63;85.93
28354;BME280;15603;50.878;8.036;2022-12-18T14:00:58;142650.34;;;-2.63;85.19
28354;BME280;15603;50.878;8.036;2022-12-18T14:03:27;142646.72;;;-2.65;85.48
28354;BME280;15603;50.878;8.036;2022-12-18T14:05:56;142639.50;;;-2.68;85.45
28354;BME280;15603;50.878;8.036;2022-12-18T14:08:23;142632.31;;;-2.71;86.27
28354;BME280;15603;50.878;8.036;2022-12-18T14:10:53;142616.63;;;-2.78;85.92
28354;BME280;15603;50.878;8.036;2022-12-18T14:13:23;142581.78;;;-2.92;86.68
28354;BME280;15603;50.878;8.036;2022-12-18T14:15:51;142607.03;;;-2.82;86.24
28354;BME280;15603;50.878;8.036;2022-12-18T14:18:23;142586.59;;;-2.90;87.14
28354;BME280;15603;50.878;8.036;2022-12-18T14:20:51;142586.59;;;-2.90;86.67
28354;BME280;15603;50.878;8.036;2022-12-18T14:23:26;142552.88;;;-3.05;87.71
28354;BME280;15603;50.878;8.036;2022-12-18T14:25:53;142550.50;;;-3.06;87.26
28354;BME280;15603;50.878;8.036;2022-12-18T14:28:20;142521.59;;;-3.18;87.89
28354;BME280;15603;50.878;8.036;2022-12-18T14:30:48;142538.47;;;-3.11;87.79